Time;durP1;ratioP1;P1;durP2;ratioP2;P2;SDS_P1;SDS_P2;PMS_P1;PMS_P2;Temp;Humidity;BMP_temperature;BMP_pressure;BME280_temperature;BME280_humidity;BME280_pressure;Samples;Min_cycle;Max_cycle;Signal;HPM_P1;HPM_P2
2023/09/03 00:01:08;;;;;;;12.27;11.00;;;22.10;97.70;;;;;;5004646;28;20498;-72
2023/09/03 00:03:34;;;;;;;12.97;11.00;;;22.10;97.70;;;;;;4987994;28;20184;-71
2023/09/03 00:06:04;;;;;;;12.77;11.10;;;22.10;97.70;;;;;;4985602;28;21052;-72
2023/09/03 00:08:33;;;;;;;11.77;10.60;;;22.10;97.70;;;;;;4987039;28;21373;-72
2023/09/03 00:11:01;;;;;;;15.50;11.97;;;22.10;97.60;;;;;;5004130;28;20412;-72
2023/09/03 00:13:30;;;;;;;11.97;10.77;;;22.00;97.60;;;;;;4986257;28;20176;-72
2023/09/03 00:15:56;;;;;;;11.27;9.93;;;22.00;97.60;;;;;;4970048;28;20452;-72
2023/09/03 00:18:22;;;;;;;12.17;10.80;;;22.00;97.60;;;;;;5003673;28;20437;-72
2023/09/03 00:20:58;;;;;;;12.07;10.53;;;22.00;97.50;;;;;;4986162;28;20440;-72
2023/09/03 00:23:25;;;;;;;11.93;10.20;;;22.00;97.50;;;;;;5002149;28;20404;-72
2023/09/03 00:25:51;;;;;;;12.70;11.40;;;22.00;97.50;;;;;;4992472;28;20441;-72
2023/09/03 00:28:17;;;;;;;11.80;9.83;;;22.00;97.50;;;;;;4966811;28;20433;-72
2023/09/03 00:30:43;;;;;;;12.80;11.17;;;22.00;97.50;;;;;;4982687;28;20452;-71
2023/09/03 00:33:11;;;;;;;12.20;10.63;;;22.00;97.50;;;;;;4950568;28;20421;-72
2023/09/03 00:35:41;;;;;;;10.50;9.50;;;21.90;97.50;;;;;;4982509;28;20405;-72
2023/09/03 00:38:10;;;;;;;11.13;10.03;;;22.00;97.50;;;;;;4967266;28;20977;-72
2023/09/03 00:40:39;;;;;;;11.80;10.00;;;21.90;97.40;;;;;;4966737;28;20899;-72
2023/09/03 00:43:05;;;;;;;10.00;9.10;;;21.90;97.40;;;;;;4984334;28;21142;-72
2023/09/03 00:45:32;;;;;;;11.13;10.03;;;21.90;97.70;;;;;;4982363;28;20400;-72
2023/09/03 00:48:06;;;;;;;12.27;11.07;;;21.90;97.40;;;;;;4982062;28;20318;-72
2023/09/03 00:50:34;;;;;;;10.37;9.30;;;21.90;97.40;;;;;;4966564;28;20464;-72
2023/09/03 00:53:04;;;;;;;11.33;10.00;;;21.90;97.30;;;;;;4950739;28;20421;-72
2023/09/03 00:55:32;;;;;;;10.73;9.63;;;21.90;97.30;;;;;;4966419;28;20425;-72
2023/09/03 00:58:01;;;;;;;10.20;9.20;;;21.90;97.30;;;;;;4966699;28;20472;-72
2023/09/03 01:00:27;;;;;;;13.70;10.57;;;21.90;97.30;;;;;;4983245;28;20436;-72
2023/09/03 01:02:56;;;;;;;10.70;9.60;;;21.90;97.30;;;;;;4966518;28;20429;-72
2023/09/03 01:05:24;;;;;;;11.17;9.97;;;21.80;97.20;;;;;;4982468;28;20452;-72
2023/09/03 01:07:50;;;;;;;10.47;9.37;;;21.80;97.20;;;;;;4966405;28;21106;-72
2023/09/03 01:10:20;;;;;;;11.00;10.00;;;21.80;97.20;;;;;;4966406;28;20429;-72
2023/09/03 01:13:19;;;;;;;10.50;9.40;;;21.80;97.20;;;;;;4950356;28;20966;-71
2023/09/03 01:15:51;;;;;;;9.53;8.63;;;21.80;97.20;;;;;;4969659;28;20437;-72
2023/09/03 01:18:23;;;;;;;9.80;8.80;;;21.80;97.20;;;;;;4970675;28;20468;-72
2023/09/03 01:20:52;;;;;;;10.70;9.70;;;21.80;97.20;;;;;;4970280;28;20510;-72
2023/09/03 01:23:38;;;;;;;10.90;9.90;;;21.80;97.20;;;;;;4970133;28;20405;-72
2023/09/03 01:26:07;;;;;;;11.33;10.13;;;21.80;97.20;;;;;;4953968;28;21036;-72
2023/09/03 01:28:38;;;;;;;9.37;8.47;;;21.70;97.20;;;;;;4953757;28;20511;-72
2023/09/03 01:31:11;;;;;;;10.43;9.33;;;21.70;97.20;;;;;;4969775;28;20532;-72
2023/09/03 01:33:42;;;;;;;10.27;9.30;;;21.70;97.20;;;;;;4987354;28;20452;-72
2023/09/03 01:36:11;;;;;;;10.93;9.53;;;21.70;97.20;;;;;;4987417;28;20480;-72
2023/09/03 01:38:38;;;;;;;11.00;9.90;;;21.70;97.20;;;;;;4969711;28;20438;-72
2023/09/03 01:41:05;;;;;;;10.90;9.90;;;21.70;97.20;;;;;;4969743;28;20435;-72
2023/09/03 01:43:34;;;;;;;10.33;9.33;;;21.70;97.20;;;;;;4985860;28;20485;-72
2023/09/03 01:46:08;;;;;;;10.97;9.87;;;21.70;97.20;;;;;;4986030;28;20417;-72
2023/09/03 01:49:13;;;;;;;11.70;10.60;;;21.70;97.20;;;;;;4970197;28;20410;-72
2023/09/03 01:51:53;;;;;;;10.73;9.73;;;21.60;97.10;;;;;;4950951;28;20552;-72
2023/09/03 01:54:24;;;;;;;11.47;10.23;;;21.60;97.10;;;;;;4987181;28;20515;-71
2023/09/03 01:57:01;;;;;;;11.70;10.10;;;21.60;97.10;;;;;;4953180;28;20468;-72
2023/09/03 01:59:40;;;;;;;11.63;10.50;;;21.60;97.10;;;;;;4969726;28;20452;-72
2023/09/03 02:02:10;;;;;;;10.90;9.80;;;21.60;97.10;;;;;;4969993;28;20425;-72
2023/09/03 02:04:39;;;;;;;15.23;10.90;;;21.60;97.10;;;;;;4969853;28;20526;-72
2023/09/03 02:07:05;;;;;;;11.70;10.50;;;21.60;97.10;;;;;;4969514;28;20469;-73
2023/09/03 02:09:32;;;;;;;12.17;10.97;;;21.60;97.10;;;;;;4969414;28;20467;-72
2023/09/03 02:11:58;;;;;;;11.40;10.17;;;21.60;97.10;;;;;;4977312;28;20440;-72
2023/09/03 02:14:24;;;;;;;11.00;10.00;;;21.50;97.10;;;;;;4989194;28;20770;-72
2023/09/03 02:16:55;;;;;;;10.13;9.10;;;21.50;97.10;;;;;;5004859;28;20489;-72
2023/09/03 02:19:23;;;;;;;12.40;10.90;;;21.50;97.00;;;;;;5006289;28;20518;-72
2023/09/03 02:21:52;;;;;;;11.50;10.40;;;21.50;97.10;;;;;;4996295;28;20543;-71
2023/09/03 02:24:18;;;;;;;11.10;10.00;;;21.50;97.00;;;;;;4985190;28;20413;-72
2023/09/03 02:26:48;;;;;;;11.07;9.97;;;21.50;97.00;;;;;;4952731;28;20495;-72
2023/09/03 02:29:16;;;;;;;11.40;10.30;;;21.50;97.10;;;;;;4952794;28;20440;-71
2023/09/03 02:31:44;;;;;;;11.33;9.73;;;21.50;97.10;;;;;;4953215;28;20448;-72
2023/09/03 02:34:13;;;;;;;11.20;10.20;;;21.50;97.00;;;;;;4985977;28;20457;-72
2023/09/03 02:36:39;;;;;;;11.80;10.70;;;21.50;97.10;;;;;;4984659;28;20469;-71
2023/09/03 02:39:06;;;;;;;11.33;10.23;;;21.50;97.00;;;;;;4968689;28;20997;-71
2023/09/03 02:41:33;;;;;;;11.13;10.13;;;21.40;97.00;;;;;;4968560;28;21033;-72
2023/09/03 02:44:02;;;;;;;12.40;10.83;;;21.40;97.00;;;;;;4968597;28;20942;-72
2023/09/03 02:46:33;;;;;;;11.60;10.40;;;21.40;97.00;;;;;;4984224;28;20494;-72
2023/09/03 02:48:59;;;;;;;10.90;9.87;;;21.40;97.00;;;;;;4968658;28;20417;-72
2023/09/03 02:51:25;;;;;;;11.30;10.10;;;21.40;96.90;;;;;;4991267;28;20459;-72
2023/09/03 02:53:54;;;;;;;13.83;10.60;;;21.40;96.90;;;;;;5003838;28;20776;-72
2023/09/03 02:56:26;;;;;;;13.13;10.30;;;21.40;96.90;;;;;;5003847;28;20976;-72
2023/09/03 02:58:52;;;;;;;10.83;9.73;;;21.40;96.90;;;;;;4987991;28;20409;-72
2023/09/03 03:01:20;;;;;;;12.87;11.67;;;21.40;96.90;;;;;;4971663;28;20434;-72
2023/09/03 03:03:47;;;;;;;11.70;10.60;;;21.40;96.90;;;;;;5004126;28;21063;-72
2023/09/03 03:06:18;;;;;;;11.30;10.20;;;21.30;96.80;;;;;;4971661;28;20448;-72
2023/09/03 03:08:44;;;;;;;11.70;10.50;;;21.30;96.80;;;;;;5003570;28;20411;-72
2023/09/03 03:11:15;;;;;;;11.30;10.10;;;21.30;97.20;;;;;;4987862;28;20278;-72
2023/09/03 03:13:51;;;;;;;10.67;9.67;;;21.30;96.80;;;;;;5005323;28;20400;-72
2023/09/03 03:16:19;;;;;;;10.00;9.10;;;21.30;96.80;;;;;;4976773;28;21060;-71
2023/09/03 03:18:48;;;;;;;11.50;10.40;;;21.30;96.80;;;;;;4968249;28;20479;-72
2023/09/03 03:21:19;;;;;;;10.50;9.50;;;21.30;96.80;;;;;;4968358;28;20423;-72
2023/09/03 03:23:51;;;;;;;11.40;10.30;;;21.30;96.80;;;;;;4951792;28;20421;-72
2023/09/03 03:26:22;;;;;;;10.93;9.83;;;21.30;96.80;;;;;;4968002;28;20459;-72
2023/09/03 03:28:49;;;;;;;10.97;9.97;;;21.20;96.70;;;;;;4985749;28;21209;-71
2023/09/03 03:31:21;;;;;;;11.43;10.30;;;21.20;96.70;;;;;;4967802;28;21130;-71
2023/09/03 03:33:51;;;;;;;11.53;10.40;;;21.20;96.70;;;;;;4970721;28;20438;-72
2023/09/03 03:36:23;;;;;;;10.40;9.40;;;21.20;96.70;;;;;;4986079;28;20482;-72
2023/09/03 03:38:49;;;;;;;11.00;9.80;;;21.20;96.70;;;;;;5003467;28;20411;-72
2023/09/03 03:41:20;;;;;;;12.53;11.23;;;21.20;96.80;;;;;;5002986;28;20438;-72
2023/09/03 03:43:50;;;;;;;10.93;9.83;;;21.20;96.80;;;;;;4986939;28;20510;-72
2023/09/03 03:46:19;;;;;;;9.87;8.97;;;21.20;96.80;;;;;;5003030;28;20516;-71
2023/09/03 03:48:51;;;;;;;10.63;9.53;;;21.10;96.70;;;;;;4970919;28;20539;-72
2023/09/03 03:51:19;;;;;;;10.40;9.40;;;21.10;96.70;;;;;;4986944;28;20401;-72
2023/09/03 03:53:49;;;;;;;10.97;9.87;;;21.20;96.70;;;;;;5002792;28;20953;-72
2023/09/03 03:56:18;;;;;;;10.77;9.70;;;21.10;96.70;;;;;;4986603;28;20908;-71
2023/09/03 03:58:45;;;;;;;10.73;9.60;;;21.10;96.70;;;;;;4986946;28;20438;-71
2023/09/03 04:01:20;;;;;;;10.30;9.40;;;21.10;96.70;;;;;;4970314;28;20436;-71
2023/09/03 04:03:51;;;;;;;10.33;9.30;;;21.20;96.80;;;;;;4970275;28;20250;-72
2023/09/03 04:06:23;;;;;;;11.07;9.93;;;21.10;96.70;;;;;;5002600;28;20443;-72
2023/09/03 04:08:54;;;;;;;10.10;9.10;;;21.10;96.70;;;;;;4986451;28;20456;-72
2023/09/03 04:11:23;;;;;;;10.60;9.60;;;21.10;96.70;;;;;;4972792;28;20465;-72
2023/09/03 04:13:49;;;;;;;10.97;9.97;;;21.10;96.70;;;;;;4951181;28;20806;-71
2023/09/03 04:16:18;;;;;;;11.23;10.13;;;21.10;97.00;;;;;;4983372;28;20480;-72
2023/09/03 04:18:49;;;;;;;10.73;9.40;;;21.00;96.60;;;;;;4983153;28;20646;-72
2023/09/03 04:21:15;;;;;;;11.57;10.47;;;21.10;96.70;;;;;;4982926;28;20415;-72
2023/09/03 04:23:41;;;;;;;9.13;8.27;;;21.00;96.60;;;;;;4982601;28;20497;-71
2023/09/03 04:26:11;;;;;;;9.80;8.90;;;21.00;96.70;;;;;;4966355;28;20456;-72
2023/09/03 04:29:06;;;;;;;9.37;8.57;;;21.00;96.70;;;;;;4981056;28;20452;-72
2023/09/03 04:31:37;;;;;;;11.50;10.03;;;21.00;96.70;;;;;;4966864;28;20454;-72
2023/09/03 04:34:09;;;;;;;10.67;9.57;;;21.00;96.70;;;;;;4982878;28;20408;-72
2023/09/03 04:36:38;;;;;;;9.20;8.40;;;21.00;96.70;;;;;;4950585;28;20560;-71
2023/09/03 04:39:04;;;;;;;9.27;8.43;;;21.00;96.70;;;;;;4982487;28;20405;-71
2023/09/03 04:41:33;;;;;;;9.73;8.83;;;21.00;96.70;;;;;;4950244;28;20417;-72
2023/09/03 04:44:10;;;;;;;10.00;9.10;;;20.90;96.70;;;;;;4950751;28;20477;-72
2023/09/03 04:46:49;;;;;;;9.40;8.43;;;20.90;96.70;;;;;;4966320;28;20487;-72
2023/09/03 04:49:15;;;;;;;9.93;8.97;;;20.90;96.70;;;;;;4981559;28;20416;-71
2023/09/03 04:51:42;;;;;;;10.67;9.67;;;20.90;96.70;;;;;;4983707;28;20460;-72
2023/09/03 04:54:09;;;;;;;10.23;9.33;;;20.90;96.70;;;;;;4981541;28;20448;-72
2023/09/03 04:56:35;;;;;;;9.73;8.73;;;20.90;96.70;;;;;;4963872;28;20482;-71
2023/09/03 04:59:04;;;;;;;10.73;9.73;;;20.90;96.70;;;;;;4983007;28;21003;-72
2023/09/03 05:01:31;;;;;;;10.07;8.97;;;20.90;96.70;;;;;;4981170;28;20472;-72
2023/09/03 05:03:58;;;;;;;9.13;8.27;;;20.90;96.70;;;;;;4981820;28;20443;-72
2023/09/03 05:06:27;;;;;;;9.70;8.70;;;20.90;96.70;;;;;;4980892;28;20529;-72
2023/09/03 05:08:58;;;;;;;9.53;8.63;;;20.80;96.60;;;;;;4948790;28;20540;-72
2023/09/03 05:11:26;;;;;;;9.83;8.87;;;20.80;96.60;;;;;;4965004;28;20838;-72
2023/09/03 05:13:52;;;;;;;8.77;7.97;;;20.80;96.60;;;;;;4999739;28;20511;-72
2023/09/03 05:16:18;;;;;;;9.57;8.77;;;20.80;96.60;;;;;;4968065;28;20479;-72
2023/09/03 05:18:45;;;;;;;9.27;8.47;;;20.80;96.50;;;;;;4983988;28;20442;-72
2023/09/03 05:21:15;;;;;;;8.13;7.33;;;20.80;96.50;;;;;;4984481;28;20407;-72
2023/09/03 05:23:44;;;;;;;9.60;8.60;;;20.80;96.60;;;;;;4984557;28;20412;-72
2023/09/03 05:26:13;;;;;;;8.80;7.93;;;20.80;96.50;;;;;;4999557;23;20566;-72
2023/09/03 05:28:43;;;;;;;8.93;8.10;;;20.80;96.50;;;;;;5024788;28;21042;-72
2023/09/03 05:31:13;;;;;;;9.67;8.87;;;20.80;96.60;;;;;;5007918;28;20761;-72
2023/09/03 05:33:41;;;;;;;9.37;8.47;;;20.80;96.50;;;;;;5008042;28;20513;-72
2023/09/03 05:36:11;;;;;;;9.70;8.53;;;20.80;96.50;;;;;;5023851;28;20908;-72
2023/09/03 05:38:42;;;;;;;9.27;8.47;;;20.80;96.90;;;;;;5024685;28;20462;-72
2023/09/03 05:41:13;;;;;;;9.37;8.57;;;20.70;96.50;;;;;;5024531;28;20412;-72
2023/09/03 05:43:39;;;;;;;8.27;7.17;;;20.70;96.50;;;;;;5007684;28;20468;-72
2023/09/03 05:46:08;;;;;;;9.33;8.43;;;20.70;96.50;;;;;;5007731;28;20432;-72
2023/09/03 05:48:34;;;;;;;11.73;8.20;;;20.70;96.50;;;;;;5023685;28;20504;-71
2023/09/03 05:51:05;;;;;;;8.23;7.43;;;20.70;96.40;;;;;;5023965;28;20488;-69
2023/09/03 05:53:35;;;;;;;10.40;8.10;;;20.70;96.40;;;;;;5023923;28;20425;-70
2023/09/03 05:56:13;;;;;;;10.00;8.60;;;20.70;96.30;;;;;;5020641;28;20504;-68
2023/09/03 05:58:45;;;;;;;9.00;8.20;;;20.70;96.30;;;;;;5007205;28;20475;-69
2023/09/03 06:01:18;;;;;;;9.07;8.20;;;20.60;96.70;;;;;;4990570;28;20481;-69
2023/09/03 06:03:44;;;;;;;8.37;7.57;;;20.70;96.40;;;;;;5004024;28;20419;-69
2023/09/03 06:06:13;;;;;;;8.93;8.03;;;20.70;96.40;;;;;;5011157;28;20454;-68
2023/09/03 06:08:44;;;;;;;8.57;7.77;;;20.60;96.30;;;;;;4990564;28;20436;-69
2023/09/03 06:11:14;;;;;;;9.03;8.23;;;20.60;96.30;;;;;;5025154;28;20500;-69
2023/09/03 06:13:47;;;;;;;10.77;9.20;;;20.60;96.30;;;;;;4991179;28;21076;-69
2023/09/03 06:16:13;;;;;;;9.10;8.30;;;20.60;96.30;;;;;;5005901;28;20498;-69
2023/09/03 06:18:42;;;;;;;9.53;8.53;;;20.60;96.30;;;;;;5007468;28;21200;-69
2023/09/03 06:21:08;;;;;;;9.57;8.67;;;20.60;96.40;;;;;;5006608;28;20487;-69
2023/09/03 06:23:36;;;;;;;8.70;7.90;;;20.60;96.40;;;;;;5006982;28;20434;-69
2023/09/03 06:26:02;;;;;;;8.90;8.10;;;20.60;96.40;;;;;;4989566;28;20430;-69
2023/09/03 06:28:28;;;;;;;9.40;8.43;;;20.60;96.50;;;;;;5052294;28;20477;-69
2023/09/03 06:30:58;;;;;;;8.33;7.53;;;20.60;96.40;;;;;;5046668;28;20430;-69
2023/09/03 06:33:27;;;;;;;10.90;8.80;;;20.60;96.50;;;;;;5046467;28;20874;-69
2023/09/03 06:35:56;;;;;;;15.63;10.07;;;20.60;96.50;;;;;;5063759;28;20401;-69
2023/09/03 06:38:25;;;;;;;9.80;8.20;;;20.60;96.60;;;;;;5048916;22;20514;-70
2023/09/03 06:40:51;;;;;;;9.00;8.20;;;20.60;96.60;;;;;;4987403;28;21039;-73
2023/09/03 06:43:18;;;;;;;9.20;8.00;;;20.60;96.60;;;;;;5008900;28;21069;-73
2023/09/03 06:45:46;;;;;;;9.43;8.57;;;20.50;96.60;;;;;;4984791;28;20428;-73
2023/09/03 06:48:12;;;;;;;9.73;8.77;;;20.50;96.60;;;;;;4969744;28;20458;-72
2023/09/03 06:50:43;;;;;;;9.23;8.33;;;20.50;96.60;;;;;;4982225;28;20439;-73
2023/09/03 06:53:10;;;;;;;9.57;8.57;;;20.50;96.60;;;;;;4979537;28;20466;-73
2023/09/03 06:55:36;;;;;;;9.17;8.27;;;20.60;96.70;;;;;;4981975;28;20436;-73
2023/09/03 06:58:03;;;;;;;10.53;9.50;;;20.60;96.70;;;;;;4991727;28;20576;-74
2023/09/03 07:00:29;;;;;;;9.93;8.83;;;20.50;96.70;;;;;;4984038;28;20463;-73
2023/09/03 07:02:57;;;;;;;9.80;8.80;;;20.60;96.70;;;;;;4997045;28;20427;-73
2023/09/03 07:05:23;;;;;;;9.00;8.10;;;20.50;96.70;;;;;;4986561;28;20437;-73
2023/09/03 07:07:49;;;;;;;9.80;8.90;;;20.50;96.70;;;;;;4984058;28;20443;-73
2023/09/03 07:10:15;;;;;;;9.97;8.97;;;20.50;96.80;;;;;;4984151;28;21274;-73
2023/09/03 07:12:41;;;;;;;10.10;9.20;;;20.60;96.80;;;;;;5001160;28;20824;-73
2023/09/03 07:15:10;;;;;;;10.03;9.17;;;20.60;96.90;;;;;;4983320;28;20452;-73
2023/09/03 07:17:38;;;;;;;9.70;8.70;;;20.50;96.80;;;;;;4983890;28;20553;-73
2023/09/03 07:20:05;;;;;;;10.07;9.10;;;20.60;96.90;;;;;;4967696;28;20426;-73
2023/09/03 07:22:31;;;;;;;9.73;8.73;;;20.60;96.90;;;;;;5001514;28;21078;-73
2023/09/03 07:24:57;;;;;;;10.40;9.30;;;20.60;96.90;;;;;;4967251;28;20431;-73
2023/09/03 07:27:23;;;;;;;9.07;8.23;;;20.50;96.80;;;;;;5000816;28;20454;-73
2023/09/03 07:29:52;;;;;;;9.70;8.80;;;20.60;96.90;;;;;;4983245;28;20481;-73
2023/09/03 07:32:21;;;;;;;10.83;9.40;;;20.50;96.90;;;;;;5000126;28;20450;-73
2023/09/03 07:34:49;;;;;;;10.57;9.57;;;20.50;96.90;;;;;;4982239;28;20421;-73
2023/09/03 07:37:17;;;;;;;10.27;9.17;;;20.50;96.90;;;;;;4982383;28;20467;-73
2023/09/03 07:39:46;;;;;;;9.70;8.70;;;20.50;96.90;;;;;;4997023;28;20479;-76
2023/09/03 07:42:14;;;;;;;9.37;8.57;;;20.50;97.00;;;;;;4998956;28;20465;-73
2023/09/03 07:44:40;;;;;;;9.43;8.60;;;20.50;96.90;;;;;;5000715;28;20980;-72
2023/09/03 07:47:09;;;;;;;9.30;8.50;;;20.60;97.00;;;;;;5000498;28;20441;-73
2023/09/03 07:49:37;;;;;;;10.43;9.43;;;20.60;97.00;;;;;;4999737;28;20226;-73
2023/09/03 07:52:09;;;;;;;9.17;8.30;;;20.60;97.10;;;;;;5000726;28;20426;-72
2023/09/03 07:54:35;;;;;;;9.10;8.20;;;20.50;97.10;;;;;;4967147;28;20512;-73
2023/09/03 07:57:01;;;;;;;9.53;8.63;;;20.60;97.10;;;;;;4982492;28;20483;-73
2023/09/03 07:59:32;;;;;;;10.10;9.20;;;20.60;97.10;;;;;;4999181;28;20499;-73
2023/09/03 08:01:58;;;;;;;11.37;10.27;;;20.60;97.10;;;;;;4982910;28;20423;-73
2023/09/03 08:04:25;;;;;;;9.50;8.60;;;20.60;97.20;;;;;;5000390;28;20427;-73
2023/09/03 08:06:51;;;;;;;9.43;8.63;;;20.60;97.20;;;;;;4982201;28;20873;-73
2023/09/03 08:09:23;;;;;;;8.37;7.67;;;20.60;97.30;;;;;;4999939;28;20503;-72
2023/09/03 08:11:50;;;;;;;9.43;8.53;;;20.60;97.30;;;;;;4950035;28;20474;-73
2023/09/03 08:14:16;;;;;;;9.03;8.20;;;20.60;97.40;;;;;;4981998;28;20971;-72
2023/09/03 08:16:47;;;;;;;10.07;9.13;;;20.60;97.40;;;;;;5000035;28;20483;-73
2023/09/03 08:19:15;;;;;;;8.73;8.03;;;20.60;97.50;;;;;;5000586;28;20411;-73
2023/09/03 08:21:41;;;;;;;9.30;8.40;;;20.60;97.50;;;;;;4998935;28;20459;-73
2023/09/03 08:24:12;;;;;;;9.37;8.57;;;20.60;97.50;;;;;;4981649;28;20922;-73
2023/09/03 08:26:40;;;;;;;8.77;7.87;;;20.60;97.50;;;;;;4997917;28;20451;-73
2023/09/03 08:29:09;;;;;;;8.67;7.97;;;20.60;97.50;;;;;;4999031;28;20443;-73
2023/09/03 08:31:37;;;;;;;8.90;8.20;;;20.60;97.50;;;;;;4981722;28;20439;-73
2023/09/03 08:34:03;;;;;;;9.57;8.67;;;20.60;97.50;;;;;;4999698;28;20454;-72
2023/09/03 08:36:31;;;;;;;9.07;8.27;;;20.60;97.60;;;;;;4978716;28;20547;-73
2023/09/03 08:38:57;;;;;;;9.20;8.40;;;20.70;97.60;;;;;;4976886;28;20432;-73
2023/09/03 08:41:24;;;;;;;8.53;7.83;;;20.70;97.60;;;;;;4979182;28;20864;-73
2023/09/03 08:43:59;;;;;;;9.53;7.70;;;20.70;97.60;;;;;;4995222;28;21095;-73
2023/09/03 08:46:31;;;;;;;8.73;7.93;;;20.70;97.70;;;;;;4966147;28;20454;-72
2023/09/03 08:48:59;;;;;;;8.50;7.80;;;20.70;97.70;;;;;;4981516;28;20423;-73
2023/09/03 08:51:26;;;;;;;8.50;7.80;;;20.70;97.80;;;;;;4949609;28;20432;-73
2023/09/03 08:53:55;;;;;;;8.90;8.00;;;20.70;97.80;;;;;;4999478;28;20462;-73
2023/09/03 08:56:22;;;;;;;8.50;7.80;;;20.80;97.80;;;;;;4997749;28;21107;-73
2023/09/03 08:58:50;;;;;;;9.87;9.07;;;20.80;97.90;;;;;;4997772;28;20459;-73
2023/09/03 09:01:22;;;;;;;7.60;7.00;;;20.80;97.70;;;;;;4999616;28;20422;-73
2023/09/03 09:03:51;;;;;;;8.63;7.93;;;20.80;97.70;;;;;;4981739;28;20439;-73
2023/09/03 09:06:22;;;;;;;9.23;8.43;;;20.80;97.60;;;;;;4981099;28;20467;-73
2023/09/03 09:08:51;;;;;;;8.70;7.90;;;20.80;97.50;;;;;;4997844;28;20461;-73
2023/09/03 09:11:19;;;;;;;7.70;7.00;;;20.80;97.50;;;;;;4998316;28;20442;-73
2023/09/03 09:13:57;;;;;;;8.47;7.77;;;20.90;97.50;;;;;;4965918;28;20447;-73
2023/09/03 09:16:25;;;;;;;8.93;8.10;;;20.90;97.60;;;;;;4999488;28;21319;-73
2023/09/03 09:18:52;;;;;;;8.47;7.67;;;20.90;97.60;;;;;;4981944;28;20423;-73
2023/09/03 09:21:19;;;;;;;8.87;8.07;;;20.90;97.60;;;;;;4997983;28;20456;-73
2023/09/03 09:23:46;;;;;;;9.27;8.37;;;20.90;97.60;;;;;;4981940;28;20424;-73
2023/09/03 09:26:23;;;;;;;8.10;7.40;;;21.00;97.70;;;;;;4965048;28;20992;-72
2023/09/03 09:29:06;;;;;;;8.47;7.67;;;21.00;97.70;;;;;;4997568;28;20882;-73
2023/09/03 09:31:34;;;;;;;8.87;8.17;;;21.00;97.70;;;;;;4964992;28;20976;-73
2023/09/03 09:34:02;;;;;;;8.03;7.33;;;21.00;97.70;;;;;;4981692;28;20551;-73
2023/09/03 09:36:30;;;;;;;8.83;8.13;;;21.10;97.70;;;;;;4985988;28;20474;-73
2023/09/03 09:39:05;;;;;;;9.57;8.77;;;21.10;97.60;;;;;;5002193;28;20444;-73
2023/09/03 09:41:37;;;;;;;8.50;7.73;;;21.10;97.60;;;;;;4985407;28;20447;-73
2023/09/03 09:44:09;;;;;;;8.57;7.60;;;21.10;97.60;;;;;;4984780;28;20506;-73
2023/09/03 09:46:35;;;;;;;8.23;7.43;;;21.20;97.70;;;;;;4968631;28;20931;-73
2023/09/03 09:49:03;;;;;;;7.90;7.20;;;21.20;97.60;;;;;;5002281;28;20467;-73
2023/09/03 09:51:33;;;;;;;8.33;7.57;;;21.20;97.50;;;;;;5003646;28;21118;-73
2023/09/03 09:54:01;;;;;;;7.33;6.67;;;21.20;97.50;;;;;;4985437;28;20432;-73
2023/09/03 09:56:34;;;;;;;8.33;7.73;;;21.30;97.60;;;;;;5001029;28;20485;-73
2023/09/03 09:59:03;;;;;;;7.87;7.20;;;21.30;97.50;;;;;;4986806;28;20809;-72
2023/09/03 10:01:44;;;;;;;7.90;7.30;;;21.30;97.50;;;;;;5003228;28;20427;-73
2023/09/03 10:04:11;;;;;;;8.93;8.13;;;21.30;97.50;;;;;;4986946;28;20522;-73
2023/09/03 10:06:43;;;;;;;8.07;7.33;;;21.40;97.50;;;;;;4970762;28;20459;-72
2023/09/03 10:09:10;;;;;;;7.60;7.00;;;21.40;97.40;;;;;;4986693;28;20456;-72
2023/09/03 10:11:38;;;;;;;7.63;7.03;;;21.50;97.40;;;;;;5003579;28;20444;-72
2023/09/03 10:14:05;;;;;;;7.83;7.20;;;21.50;97.30;;;;;;4971736;28;20435;-72
2023/09/03 10:16:31;;;;;;;7.80;7.10;;;21.50;97.20;;;;;;5001878;28;20477;-73
2023/09/03 10:19:02;;;;;;;7.37;6.70;;;21.50;97.10;;;;;;4969935;28;21012;-73
2023/09/03 10:21:32;;;;;;;7.13;6.53;;;21.60;97.00;;;;;;4968973;28;20449;-73
2023/09/03 10:24:05;;;;;;;7.20;6.60;;;21.60;97.00;;;;;;5003127;28;21201;-73
2023/09/03 10:26:41;;;;;;;6.60;6.10;;;21.60;96.90;;;;;;5002311;28;20452;-73
2023/09/03 10:29:13;;;;;;;7.50;6.80;;;21.70;96.90;;;;;;5001403;28;21403;-76
2023/09/03 10:31:43;;;;;;;10.83;6.80;;;21.70;96.90;;;;;;5001317;28;20431;-75
2023/09/03 10:34:14;;;;;;;7.10;6.50;;;21.70;96.90;;;;;;5000296;28;21251;-74
2023/09/03 10:37:03;;;;;;;6.93;6.27;;;21.70;96.90;;;;;;5002321;28;21211;-76
2023/09/03 10:39:35;;;;;;;8.00;7.40;;;21.80;96.90;;;;;;4984375;28;20456;-75
2023/09/03 10:42:28;;;;;;;7.27;6.77;;;21.80;96.80;;;;;;5003328;28;20980;-75
2023/09/03 10:45:00;;;;;;;7.20;6.53;;;21.80;96.80;;;;;;4984578;28;20453;-75
2023/09/03 10:47:27;;;;;;;6.83;6.33;;;21.80;96.80;;;;;;5000740;28;20469;-77
2023/09/03 10:49:54;;;;;;;6.97;6.37;;;21.90;96.80;;;;;;4986283;28;20448;-77
2023/09/03 10:52:34;;;;;;;6.87;6.37;;;21.90;96.70;;;;;;4986640;28;20445;-77
2023/09/03 10:55:17;;;;;;;5.93;5.53;;;21.90;96.70;;;;;;5003863;28;20583;-77
2023/09/03 10:57:48;;;;;;;6.60;6.10;;;21.90;96.60;;;;;;4990538;28;20502;-76
2023/09/03 11:00:20;;;;;;;6.07;5.53;;;22.00;96.60;;;;;;5002964;28;20488;-75
2023/09/03 11:02:51;;;;;;;6.87;6.27;;;22.00;96.50;;;;;;5004440;28;20500;-76
2023/09/03 11:05:21;;;;;;;6.43;6.03;;;22.00;96.40;;;;;;5002327;28;20482;-75
2023/09/03 11:08:30;;;;;;;6.63;6.13;;;22.00;96.30;;;;;;4969761;28;20456;-75
2023/09/03 11:11:00;;;;;;;5.97;5.57;;;22.10;96.20;;;;;;4987113;28;20555;-75
2023/09/03 11:13:27;;;;;;;6.50;6.00;;;22.10;96.10;;;;;;4986246;28;20452;-76
2023/09/03 11:15:59;;;;;;;5.70;5.30;;;22.10;96.00;;;;;;5002860;28;20534;-76
2023/09/03 11:18:28;;;;;;;6.23;5.70;;;22.20;96.00;;;;;;4970667;28;20424;-76
2023/09/03 11:21:00;;;;;;;6.10;5.50;;;22.20;95.90;;;;;;5002386;28;20551;-75
2023/09/03 11:23:28;;;;;;;6.50;5.90;;;22.20;95.80;;;;;;5001447;28;20420;-75
2023/09/03 11:25:57;;;;;;;5.80;5.40;;;22.30;95.80;;;;;;5002773;23;20492;-76
2023/09/03 11:28:23;;;;;;;5.97;5.57;;;22.30;95.80;;;;;;4982517;28;20981;-77
2023/09/03 11:31:00;;;;;;;6.87;6.37;;;22.30;95.80;;;;;;4983553;28;20434;-77
2023/09/03 11:33:28;;;;;;;5.87;5.47;;;22.30;95.70;;;;;;4967109;28;20519;-76
2023/09/03 11:35:55;;;;;;;5.60;5.20;;;22.40;95.80;;;;;;4982910;28;20468;-76
2023/09/03 11:38:27;;;;;;;6.23;5.77;;;22.40;95.60;;;;;;4985113;28;20477;-74
2023/09/03 11:40:58;;;;;;;6.27;5.77;;;22.40;95.50;;;;;;4984922;28;20456;-74
2023/09/03 11:43:26;;;;;;;6.80;6.30;;;22.50;95.60;;;;;;4984541;28;20867;-75
2023/09/03 11:45:52;;;;;;;7.63;5.77;;;22.50;95.50;;;;;;4967835;28;20492;-75
2023/09/03 11:48:29;;;;;;;6.80;5.37;;;22.50;95.10;;;;;;4982515;28;20445;-76
2023/09/03 11:50:58;;;;;;;5.80;5.30;;;22.50;94.40;;;;;;4967630;28;20900;-76
2023/09/03 11:53:40;;;;;;;6.27;5.67;;;22.60;93.60;;;;;;4983789;28;20425;-75
2023/09/03 11:56:12;;;;;;;6.83;5.93;;;22.70;93.40;;;;;;4984418;28;20788;-77
2023/09/03 11:58:39;;;;;;;5.27;4.87;;;22.70;93.60;;;;;;4986181;28;20401;-76
2023/09/03 12:01:08;;;;;;;9.87;5.87;;;22.80;93.50;;;;;;4985308;28;20413;-77
2023/09/03 12:03:38;;;;;;;5.80;5.30;;;22.80;93.40;;;;;;4987918;28;20448;-76
2023/09/03 12:06:05;;;;;;;7.00;5.90;;;22.90;93.40;;;;;;4986108;28;20516;-77
2023/09/03 12:08:33;;;;;;;6.63;6.03;;;22.90;93.80;;;;;;4987726;28;20501;-77
2023/09/03 12:11:02;;;;;;;8.47;5.63;;;23.00;93.90;;;;;;4987355;28;20413;-77
2023/09/03 12:13:33;;;;;;;5.70;5.20;;;23.00;93.80;;;;;;4986240;28;20999;-75
2023/09/03 12:16:09;;;;;;;6.63;5.93;;;23.00;93.80;;;;;;4985695;28;20953;-76
2023/09/03 12:18:38;;;;;;;5.97;5.47;;;23.00;93.90;;;;;;4970253;28;20804;-76
2023/09/03 12:21:07;;;;;;;6.40;5.90;;;23.00;94.00;;;;;;4985943;28;20499;-76
2023/09/03 12:23:37;;;;;;;6.17;5.50;;;23.00;94.00;;;;;;4984900;28;20567;-76
2023/09/03 12:26:03;;;;;;;8.63;5.93;;;23.10;94.00;;;;;;4984399;28;20548;-77
2023/09/03 12:28:34;;;;;;;6.30;5.67;;;23.10;94.00;;;;;;4985953;28;20459;-76
2023/09/03 12:31:02;;;;;;;6.10;5.60;;;23.10;94.00;;;;;;4985845;28;20504;-77
2023/09/03 12:33:34;;;;;;;9.90;6.17;;;23.10;94.10;;;;;;4985104;28;20427;-76
2023/09/03 12:36:13;;;;;;;6.50;6.07;;;23.10;94.20;;;;;;4984957;28;20520;-77
2023/09/03 12:38:53;;;;;;;6.87;6.20;;;23.10;94.20;;;;;;4985038;28;20918;-76
2023/09/03 12:41:34;;;;;;;7.50;6.53;;;23.10;94.20;;;;;;4985703;28;20429;-77
2023/09/03 12:44:07;;;;;;;6.57;5.97;;;23.20;94.30;;;;;;4985560;28;20421;-77
2023/09/03 12:46:42;;;;;;;6.60;6.10;;;23.10;94.00;;;;;;4984622;28;20986;-76
2023/09/03 12:49:11;;;;;;;6.57;6.00;;;23.20;94.30;;;;;;4968483;28;20447;-76
2023/09/03 12:51:43;;;;;;;6.17;5.67;;;23.20;94.00;;;;;;4984373;28;20508;-77
2023/09/03 12:54:12;;;;;;;6.50;5.90;;;23.20;94.00;;;;;;4984549;28;20433;-77